Time;durP1;ratioP1;P1;durP2;ratioP2;P2;SDS_P1;SDS_P2;PMS_P1;PMS_P2;Temp;Humidity;BMP_temperature;BMP_pressure;BME280_temperature;BME280_humidity;BME280_pressure;Samples;Min_cycle;Max_cycle;Signal;HPM_P1;HPM_P2
2021/11/20 00:00:32;;;;;;;;;;;;;;;;;;1884006;28;7152;-65
2021/11/20 00:01:30;;;;;;;;;;;;;;;;;;1883474;28;7116;-64
2021/11/20 00:02:29;;;;;;;;;;;;;;;;;;1883860;28;7092;-65
2021/11/20 00:03:28;;;;;;;;;;;;;;;;;;1882294;28;8095;-65
2021/11/20 00:04:25;;;;;;;;;;;;;;;;;;1883685;28;7006;-65
2021/11/20 00:05:25;;;;;;;;;;;;;;;;;;1883089;28;7010;-66
2021/11/20 00:06:26;;;;;;;;;;;;;;;;;;1883159;28;8051;-66
2021/11/20 00:07:23;;;;;;;;;;;;;;;;;;1883788;28;7101;-65
2021/11/20 00:08:22;;;;;;;;;;;;;;;;;;1884181;28;7101;-65
2021/11/20 00:09:21;;;;;;;;;;;;;;;;;;1883865;28;7085;-65
2021/11/20 00:10:22;;;;;;;;;;;;;;;;;;1883514;28;7042;-64
2021/11/20 00:11:21;;;;;;;;;;;;;;;;;;1882161;28;7317;-65
2021/11/20 00:12:24;;;;;;;;;;;;;;;;;;1883351;28;7010;-63
2021/11/20 00:13:22;;;;;;;;;;;;;;;;;;1883243;28;7042;-64
2021/11/20 00:14:20;;;;;;;;;;;;;;;;;;1883502;28;7305;-65
2021/11/20 00:15:21;;;;;;;;;;;;;;;;;;1883777;28;8012;-65
2021/11/20 00:16:21;;;;;;;;;;;;;;;;;;1884016;28;7001;-65
2021/11/20 00:17:18;;;;;;;;;;;;;;;;;;1884533;28;7030;-64
2021/11/20 00:18:18;;;;;;;;;;;;;;;;;;1883560;28;7344;-65
2021/11/20 00:19:15;;;;;;;;;;;;;;;;;;1883510;28;7009;-64
2021/11/20 00:20:15;;;;;;;;;;;;;;;;;;1883709;28;7014;-65
2021/11/20 00:21:18;;;;;;;;;;;;;;;;;;1883649;28;7093;-65
2021/11/20 00:22:20;;;;;;;;;;;;;;;;;;1883633;28;7093;-65
2021/11/20 00:23:19;;;;;;;;;;;;;;;;;;1883295;28;7046;-64
2021/11/20 00:24:37;;;;;;;;;;;;;;;;;;1883602;28;7001;-65
2021/11/20 00:25:42;;;;;;;;;;;;;;;;;;1878530;28;7029;-64
2021/11/20 00:26:40;;;;;;;;;;;;;;;;;;1883599;28;7030;-65
2021/11/20 00:27:37;;;;;;;;;;;;;;;;;;1883415;28;7014;-64
2021/11/20 00:28:53;;;;;;;;;;;;;;;;;;1883607;28;7161;-65
2021/11/20 00:30:01;;;;;;;;;;;;;;;;;;1883810;28;7006;-65
2021/11/20 00:30:59;;;;;;;;;;;;;;;;;;1883079;28;7010;-65
2021/11/20 00:31:58;;;;;;;;;;;;;;;;;;1882632;28;7026;-65
2021/11/20 00:32:59;;;;;;;;;;;;;;;;;;1882879;28;7010;-65
2021/11/20 00:33:57;;;;;;;;;;;;;;;;;;1881453;28;7113;-65
2021/11/20 00:34:58;;;;;;;;;;;;;;;;;;1883016;28;7089;-65
2021/11/20 00:35:58;;;;;;;;;;;;;;;;;;1883365;28;7013;-65
2021/11/20 00:36:56;;;;;;;;;;;;;;;;;;1882889;28;7395;-64
2021/11/20 00:37:54;;;;;;;;;;;;;;;;;;1883048;28;7296;-66
2021/11/20 00:38:53;;;;;;;;;;;;;;;;;;1881389;28;7221;-65
2021/11/20 00:39:51;;;;;;;;;;;;;;;;;;1883112;28;8063;-65
2021/11/20 00:40:52;;;;;;;;;;;;;;;;;;1883086;28;7043;-66
2021/11/20 00:41:50;;;;;;;;;;;;;;;;;;1883302;28;7030;-65
2021/11/20 00:42:47;;;;;;;;;;;;;;;;;;1882543;28;7010;-66
2021/11/20 00:43:46;;;;;;;;;;;;;;;;;;1882639;28;7060;-65
2021/11/20 00:44:44;;;;;;;;;;;;;;;;;;1882789;28;7005;-65
2021/11/20 00:45:42;;;;;;;;;;;;;;;;;;1883441;28;7109;-65
2021/11/20 00:46:39;;;;;;;;;;;;;;;;;;1883040;28;7030;-65
2021/11/20 00:47:37;;;;;;;;;;;;;;;;;;1882643;28;7030;-65
2021/11/20 00:48:35;;;;;;;;;;;;;;;;;;1883144;28;7006;-64
2021/11/20 00:49:33;;;;;;;;;;;;;;;;;;1882769;28;7093;-65
2021/11/20 00:50:32;;;;;;;;;;;;;;;;;;1883653;28;7104;-65
2021/11/20 00:51:29;;;;;;;;;;;;;;;;;;1883392;28;7010;-65
2021/11/20 00:52:28;;;;;;;;;;;;;;;;;;1883380;28;7010;-64
2021/11/20 00:53:26;;;;;;;;;;;;;;;;;;1883349;28;7097;-65
2021/11/20 00:54:24;;;;;;;;;;;;;;;;;;1883628;28;7046;-65
2021/11/20 00:55:24;;;;;;;;;;;;;;;;;;1883593;28;7014;-66
2021/11/20 00:56:24;;;;;;;;;;;;;;;;;;1882372;28;7021;-65
2021/11/20 00:57:21;;;;;;;;;;;;;;;;;;1883398;28;7100;-64
2021/11/20 00:58:20;;;;;;;;;;;;;;;;;;1883354;28;7092;-66
2021/11/20 00:59:18;;;;;;;;;;;;;;;;;;1883606;28;7303;-65
2021/11/20 01:00:17;;;;;;;;;;;;;;;;;;1882863;28;8123;-65
2021/11/20 01:01:18;;;;;;;;;;;;;;;;;;1874599;28;7161;-64
2021/11/20 01:02:16;;;;;;;;;;;;;;;;;;1876384;28;7006;-65
2021/11/20 01:03:14;;;;;;;;;;;;;;;;;;1876382;28;7006;-66
2021/11/20 01:04:11;;;;;;;;;;;;;;;;;;1883851;28;7014;-65
2021/11/20 01:05:11;;;;;;;;;;;;;;;;;;1883128;28;7093;-65
2021/11/20 01:06:09;;;;;;;;;;;;;;;;;;1883135;28;7375;-65
2021/11/20 01:07:08;;;;;;;;;;;;;;;;;;1883224;28;8085;-64
2021/11/20 01:08:07;;;;;;;;;;;;;;;;;;1883059;28;7198;-65
2021/11/20 01:09:04;;;;;;;;;;;;;;;;;;1882216;28;7014;-64
2021/11/20 01:10:07;;;;;;;;;;;;;;;;;;1883332;28;7022;-65
2021/11/20 01:11:08;;;;;;;;;;;;;;;;;;1883443;28;7133;-65
2021/11/20 01:12:13;;;;;;;;;;;;;;;;;;1883531;28;7401;-65
2021/11/20 01:13:12;;;;;;;;;;;;;;;;;;1883249;28;7014;-64
2021/11/20 01:14:11;;;;;;;;;;;;;;;;;;1883743;28;7014;-64
2021/11/20 01:15:11;;;;;;;;;;;;;;;;;;1883667;28;7109;-65
2021/11/20 01:16:10;;;;;;;;;;;;;;;;;;1883315;28;7006;-65
2021/11/20 01:17:08;;;;;;;;;;;;;;;;;;1883577;28;7017;-66
2021/11/20 01:18:07;;;;;;;;;;;;;;;;;;1883173;28;7413;-65
2021/11/20 01:19:05;;;;;;;;;;;;;;;;;;1883091;28;7097;-65
2021/11/20 01:20:05;;;;;;;;;;;;;;;;;;1883328;28;7053;-65
2021/11/20 01:21:03;;;;;;;;;;;;;;;;;;1883354;28;7038;-64
2021/11/20 01:22:03;;;;;;;;;;;;;;;;;;1883211;28;7026;-65
2021/11/20 01:23:01;;;;;;;;;;;;;;;;;;1883351;28;7089;-64
2021/11/20 01:23:58;;;;;;;;;;;;;;;;;;1883289;28;7109;-66
2021/11/20 01:24:56;;;;;;;;;;;;;;;;;;1883226;28;8103;-65
2021/11/20 01:25:54;;;;;;;;;;;;;;;;;;1883137;28;7097;-65
2021/11/20 01:26:53;;;;;;;;;;;;;;;;;;1882877;28;7109;-65
2021/11/20 01:27:51;;;;;;;;;;;;;;;;;;1883362;28;7106;-65
2021/11/20 01:28:51;;;;;;;;;;;;;;;;;;1882086;28;7110;-66
2021/11/20 01:29:49;;;;;;;;;;;;;;;;;;1883737;28;7143;-65
2021/11/20 01:30:46;;;;;;;;;;;;;;;;;;1882242;28;7005;-64
2021/11/20 01:31:46;;;;;;;;;;;;;;;;;;1882337;28;7093;-65
2021/11/20 01:32:43;;;;;;;;;;;;;;;;;;1879472;28;8009;-65
2021/11/20 01:33:42;;;;;;;;;;;;;;;;;;1874672;28;7132;-65
2021/11/20 01:34:41;;;;;;;;;;;;;;;;;;1876882;28;7006;-65
2021/11/20 01:35:38;;;;;;;;;;;;;;;;;;1882780;28;7096;-63
2021/11/20 01:36:38;;;;;;;;;;;;;;;;;;1882393;28;7085;-66
2021/11/20 01:37:36;;;;;;;;;;;;;;;;;;1883554;28;7006;-65
2021/11/20 01:38:34;;;;;;;;;;;;;;;;;;1882250;28;7010;-65
2021/11/20 01:39:34;;;;;;;;;;;;;;;;;;1881361;28;7005;-65
2021/11/20 01:40:34;;;;;;;;;;;;;;;;;;1877841;28;7321;-65
2021/11/20 01:41:31;;;;;;;;;;;;;;;;;;1882419;28;7316;-65
2021/11/20 01:42:31;;;;;;;;;;;;;;;;;;1882959;28;7018;-65
2021/11/20 01:43:28;;;;;;;;;;;;;;;;;;1882730;28;7029;-64
2021/11/20 01:44:38;;;;;;;;;;;;;;;;;;1883111;28;7025;-65
2021/11/20 01:45:44;;;;;;;;;;;;;;;;;;1883283;28;7118;-65
2021/11/20 01:46:44;;;;;;;;;;;;;;;;;;1883278;28;7966;-64
2021/11/20 01:47:47;;;;;;;;;;;;;;;;;;1883193;28;7013;-65
2021/11/20 01:48:58;;;;;;;;;;;;;;;;;;1881467;28;7014;-65
2021/11/20 01:49:58;;;;;;;;;;;;;;;;;;1883172;28;7018;-65
2021/11/20 01:51:14;;;;;;;;;;;;;;;;;;1883094;28;7002;-65
2021/11/20 01:52:35;;;;;;;;;;;;;;;;;;1883785;28;7100;-64
2021/11/20 01:53:39;;;;;;;;;;;;;;;;;;1883234;28;7017;-65
2021/11/20 01:54:37;;;;;;;;;;;;;;;;;;1883155;28;7006;-65
2021/11/20 01:55:49;;;;;;;;;;;;;;;;;;1882213;28;7002;-64
2021/11/20 01:56:49;;;;;;;;;;;;;;;;;;1883088;28;7137;-65
2021/11/20 01:58:09;;;;;;;;;;;;;;;;;;1883317;28;8064;-65
2021/11/20 01:59:23;;;;;;;;;;;;;;;;;;1882722;28;7093;-64
2021/11/20 02:00:23;;;;;;;;;;;;;;;;;;1881289;28;7110;-65
2021/11/20 02:01:29;;;;;;;;;;;;;;;;;;1883515;28;7042;-64
2021/11/20 02:02:37;;;;;;;;;;;;;;;;;;1883290;28;7017;-65
2021/11/20 02:03:43;;;;;;;;;;;;;;;;;;1883308;28;7054;-65
2021/11/20 02:04:56;;;;;;;;;;;;;;;;;;1883127;28;7097;-65
2021/11/20 02:06:05;;;;;;;;;;;;;;;;;;1883032;28;7145;-65
2021/11/20 02:07:09;;;;;;;;;;;;;;;;;;1882706;28;7344;-66
2021/11/20 02:08:15;;;;;;;;;;;;;;;;;;1882955;28;7093;-65
2021/11/20 02:09:16;;;;;;;;;;;;;;;;;;1882864;28;7034;-65
2021/11/20 02:10:13;;;;;;;;;;;;;;;;;;1883036;28;7109;-64
2021/11/20 02:11:17;;;;;;;;;;;;;;;;;;1883465;28;7113;-64
2021/11/20 02:12:21;;;;;;;;;;;;;;;;;;1882774;28;7025;-65
2021/11/20 02:13:20;;;;;;;;;;;;;;;;;;1882284;28;7418;-64
2021/11/20 02:14:19;;;;;;;;;;;;;;;;;;1882982;28;8047;-65
2021/11/20 02:15:23;;;;;;;;;;;;;;;;;;1875816;28;7092;-65
2021/11/20 02:16:27;;;;;;;;;;;;;;;;;;1875425;28;7010;-65
2021/11/20 02:17:28;;;;;;;;;;;;;;;;;;1882811;28;7037;-65
2021/11/20 02:18:29;;;;;;;;;;;;;;;;;;1881590;28;7106;-65
2021/11/20 02:19:29;;;;;;;;;;;;;;;;;;1882984;28;7006;-65
2021/11/20 02:20:31;;;;;;;;;;;;;;;;;;1882823;28;7964;-64
2021/11/20 02:21:38;;;;;;;;;;;;;;;;;;1882793;28;7644;-65
2021/11/20 02:22:35;;;;;;;;;;;;;;;;;;1882786;28;7356;-65
2021/11/20 02:23:33;;;;;;;;;;;;;;;;;;1882487;28;7009;-64
2021/11/20 02:24:30;;;;;;;;;;;;;;;;;;1882284;28;7101;-65
2021/11/20 02:25:27;;;;;;;;;;;;;;;;;;1877848;28;7113;-65
2021/11/20 02:26:25;;;;;;;;;;;;;;;;;;1883117;28;7152;-65
2021/11/20 02:27:22;;;;;;;;;;;;;;;;;;1882660;28;7117;-65
2021/11/20 02:28:20;;;;;;;;;;;;;;;;;;1882973;28;7049;-65
2021/11/20 02:29:17;;;;;;;;;;;;;;;;;;1882571;28;7113;-66
2021/11/20 02:30:29;;;;;;;;;;;;;;;;;;1882908;28;7034;-64
2021/11/20 02:31:27;;;;;;;;;;;;;;;;;;1882105;28;7045;-64
2021/11/20 02:32:24;;;;;;;;;;;;;;;;;;1880191;28;7096;-65
2021/11/20 02:33:24;;;;;;;;;;;;;;;;;;1875441;28;7093;-65
2021/11/20 02:34:23;;;;;;;;;;;;;;;;;;1874969;29;7089;-65
2021/11/20 02:35:24;;;;;;;;;;;;;;;;;;1873966;28;7092;-65
2021/11/20 02:36:23;;;;;;;;;;;;;;;;;;1882320;28;7025;-65
2021/11/20 02:37:21;;;;;;;;;;;;;;;;;;1882237;28;8063;-64
2021/11/20 02:38:26;;;;;;;;;;;;;;;;;;1882041;28;7042;-64
2021/11/20 02:39:25;;;;;;;;;;;;;;;;;;1882031;28;7038;-65
2021/11/20 02:40:24;;;;;;;;;;;;;;;;;;1882316;28;8060;-64
2021/11/20 02:41:22;;;;;;;;;;;;;;;;;;1875736;28;7050;-65
2021/11/20 02:42:22;;;;;;;;;;;;;;;;;;1874662;29;7114;-64
2021/11/20 02:43:21;;;;;;;;;;;;;;;;;;1874422;28;7252;-66
2021/11/20 02:44:21;;;;;;;;;;;;;;;;;;1874553;28;7325;-64
2021/11/20 02:45:22;;;;;;;;;;;;;;;;;;1874995;29;7129;-65
2021/11/20 02:46:21;;;;;;;;;;;;;;;;;;1875677;29;7071;-65
2021/11/20 02:47:34;;;;;;;;;;;;;;;;;;1875799;29;7013;-64
2021/11/20 02:48:32;;;;;;;;;;;;;;;;;;1875392;28;7758;-66
2021/11/20 02:49:30;;;;;;;;;;;;;;;;;;1881320;28;7026;-64
2021/11/20 02:50:31;;;;;;;;;;;;;;;;;;1876321;28;7092;-66
2021/11/20 02:51:31;;;;;;;;;;;;;;;;;;1877399;28;7050;-66
2021/11/20 02:52:29;;;;;;;;;;;;;;;;;;1876109;28;7092;-65
2021/11/20 02:53:33;;;;;;;;;;;;;;;;;;1876957;28;7364;-65
2021/11/20 02:54:31;;;;;;;;;;;;;;;;;;1884131;28;8100;-65
2021/11/20 02:55:29;;;;;;;;;;;;;;;;;;1884446;28;7103;-65
2021/11/20 02:56:32;;;;;;;;;;;;;;;;;;1878717;28;7009;-64
2021/11/20 02:57:32;;;;;;;;;;;;;;;;;;1877120;28;7010;-65
2021/11/20 02:58:30;;;;;;;;;;;;;;;;;;1875753;28;7714;-65
2021/11/20 02:59:28;;;;;;;;;;;;;;;;;;1877332;28;7089;-65
2021/11/20 03:00:26;;;;;;;;;;;;;;;;;;1877404;28;7105;-65
2021/11/20 03:01:24;;;;;;;;;;;;;;;;;;1875995;28;7092;-65
2021/11/20 03:02:22;;;;;;;;;;;;;;;;;;1877164;28;7038;-64
2021/11/20 03:03:20;;;;;;;;;;;;;;;;;;1876853;28;7153;-65
2021/11/20 03:04:20;;;;;;;;;;;;;;;;;;1876652;28;7316;-64
2021/11/20 03:05:18;;;;;;;;;;;;;;;;;;1880569;28;8085;-64
2021/11/20 03:06:15;;;;;;;;;;;;;;;;;;1884123;28;7006;-65
2021/11/20 03:07:13;;;;;;;;;;;;;;;;;;1879621;28;7176;-65
2021/11/20 03:08:10;;;;;;;;;;;;;;;;;;1876899;28;7150;-65
2021/11/20 03:09:09;;;;;;;;;;;;;;;;;;1875602;28;7014;-65
2021/11/20 03:10:08;;;;;;;;;;;;;;;;;;1877188;28;8036;-65
2021/11/20 03:11:05;;;;;;;;;;;;;;;;;;1876603;28;7097;-65
2021/11/20 03:12:05;;;;;;;;;;;;;;;;;;1876992;28;7009;-65
2021/11/20 03:13:02;;;;;;;;;;;;;;;;;;1881050;28;7089;-65
2021/11/20 03:14:05;;;;;;;;;;;;;;;;;;1883487;28;7101;-65
2021/11/20 03:15:09;;;;;;;;;;;;;;;;;;1882784;28;7105;-65
2021/11/20 03:16:06;;;;;;;;;;;;;;;;;;1884419;28;7042;-65
2021/11/20 03:17:05;;;;;;;;;;;;;;;;;;1876066;28;7014;-65
2021/11/20 03:18:03;;;;;;;;;;;;;;;;;;1876944;28;7006;-65
2021/11/20 03:19:00;;;;;;;;;;;;;;;;;;1876920;28;7105;-66
2021/11/20 03:19:58;;;;;;;;;;;;;;;;;;1875537;28;7093;-65
2021/11/20 03:20:56;;;;;;;;;;;;;;;;;;1876715;28;7034;-64
2021/11/20 03:21:59;;;;;;;;;;;;;;;;;;1876588;28;7147;-66
2021/11/20 03:23:10;;;;;;;;;;;;;;;;;;1881996;28;7026;-64
2021/11/20 03:24:14;;;;;;;;;;;;;;;;;;1883775;28;7111;-66
2021/11/20 03:25:12;;;;;;;;;;;;;;;;;;1883890;28;8043;-65
2021/11/20 03:26:09;;;;;;;;;;;;;;;;;;1883543;28;7009;-65
2021/11/20 03:27:07;;;;;;;;;;;;;;;;;;1877425;28;7261;-65
2021/11/20 03:28:05;;;;;;;;;;;;;;;;;;1876804;28;8104;-65
2021/11/20 03:29:02;;;;;;;;;;;;;;;;;;1875355;28;7042;-65
2021/11/20 03:30:01;;;;;;;;;;;;;;;;;;1876501;28;7009;-65
2021/11/20 03:30:58;;;;;;;;;;;;;;;;;;1876416;28;7014;-64
2021/11/20 03:31:57;;;;;;;;;;;;;;;;;;1877169;28;8026;-65
2021/11/20 03:32:55;;;;;;;;;;;;;;;;;;1876073;28;7010;-65
2021/11/20 03:33:53;;;;;;;;;;;;;;;;;;1876910;28;7006;-64
2021/11/20 03:34:52;;;;;;;;;;;;;;;;;;1877281;28;7074;-65
2021/11/20 03:35:49;;;;;;;;;;;;;;;;;;1875216;28;7010;-65
2021/11/20 03:36:47;;;;;;;;;;;;;;;;;;1880080;28;7096;-64
2021/11/20 03:37:44;;;;;;;;;;;;;;;;;;1883219;28;7038;-65
2021/11/20 03:38:42;;;;;;;;;;;;;;;;;;1874766;28;7034;-65
2021/11/20 03:39:41;;;;;;;;;;;;;;;;;;1875509;28;7035;-66
2021/11/20 03:40:39;;;;;;;;;;;;;;;;;;1875660;28;7006;-65
2021/11/20 03:41:38;;;;;;;;;;;;;;;;;;1875723;28;7010;-65
2021/11/20 03:42:36;;;;;;;;;;;;;;;;;;1876330;28;7120;-65
2021/11/20 03:43:34;;;;;;;;;;;;;;;;;;1876236;28;8052;-64
2021/11/20 03:44:32;;;;;;;;;;;;;;;;;;1875860;28;7010;-65
2021/11/20 03:45:32;;;;;;;;;;;;;;;;;;1876475;28;7010;-65
2021/11/20 03:46:29;;;;;;;;;;;;;;;;;;1876174;28;7097;-65
2021/11/20 03:47:27;;;;;;;;;;;;;;;;;;1876550;28;7088;-65
2021/11/20 03:48:24;;;;;;;;;;;;;;;;;;1876255;28;8023;-65
2021/11/20 03:49:22;;;;;;;;;;;;;;;;;;1876438;28;7093;-65
2021/11/20 03:50:19;;;;;;;;;;;;;;;;;;1875655;28;7049;-65
2021/11/20 03:51:17;;;;;;;;;;;;;;;;;;1883889;28;7097;-65
2021/11/20 03:52:17;;;;;;;;;;;;;;;;;;1883769;28;7009;-66
2021/11/20 03:53:15;;;;;;;;;;;;;;;;;;1883868;28;7009;-65
2021/11/20 03:54:13;;;;;;;;;;;;;;;;;;1879986;28;7088;-64
2021/11/20 03:55:16;;;;;;;;;;;;;;;;;;1876965;28;7038;-65
2021/11/20 03:56:14;;;;;;;;;;;;;;;;;;1869787;29;7030;-65
2021/11/20 03:57:11;;;;;;;;;;;;;;;;;;1877056;28;7006;-63
2021/11/20 03:58:10;;;;;;;;;;;;;;;;;;1875734;28;7391;-65
2021/11/20 03:59:08;;;;;;;;;;;;;;;;;;1876595;28;7038;-65
2021/11/20 04:00:11;;;;;;;;;;;;;;;;;;1876496;28;7140;-65
2021/11/20 04:01:10;;;;;;;;;;;;;;;;;;1882887;28;7400;-65
2021/11/20 04:02:07;;;;;;;;;;;;;;;;;;1875421;28;9399;-66
2021/11/20 04:03:06;;;;;;;;;;;;;;;;;;1876683;28;7010;-65
2021/11/20 04:04:04;;;;;;;;;;;;;;;;;;1877273;28;7092;-64
2021/11/20 04:05:02;;;;;;;;;;;;;;;;;;1876407;28;7034;-64
2021/11/20 04:06:02;;;;;;;;;;;;;;;;;;1882683;28;7397;-64
2021/11/20 04:07:00;;;;;;;;;;;;;;;;;;1883865;28;7038;-65
2021/11/20 04:07:59;;;;;;;;;;;;;;;;;;1884345;28;7050;-64
2021/11/20 04:09:14;;;;;;;;;;;;;;;;;;1883898;28;7002;-65
2021/11/20 04:10:12;;;;;;;;;;;;;;;;;;1875510;28;7105;-63
2021/11/20 04:11:10;;;;;;;;;;;;;;;;;;1883358;28;7006;-64
2021/11/20 04:12:09;;;;;;;;;;;;;;;;;;1883780;28;7990;-65
2021/11/20 04:13:06;;;;;;;;;;;;;;;;;;1875973;28;8031;-65
2021/11/20 04:14:04;;;;;;;;;;;;;;;;;;1877380;28;7221;-65
2021/11/20 04:15:03;;;;;;;;;;;;;;;;;;1876246;28;7021;-65
2021/11/20 04:16:01;;;;;;;;;;;;;;;;;;1876347;28;7397;-66
2021/11/20 04:16:58;;;;;;;;;;;;;;;;;;1875597;28;7124;-64
2021/11/20 04:17:56;;;;;;;;;;;;;;;;;;1882878;28;7066;-65
2021/11/20 04:18:53;;;;;;;;;;;;;;;;;;1882046;28;7096;-65
2021/11/20 04:19:51;;;;;;;;;;;;;;;;;;1883645;28;7009;-64
2021/11/20 04:20:48;;;;;;;;;;;;;;;;;;1884134;28;7006;-65
2021/11/20 04:21:46;;;;;;;;;;;;;;;;;;1883842;28;7234;-65
2021/11/20 04:22:44;;;;;;;;;;;;;;;;;;1882110;28;7844;-65
2021/11/20 04:23:45;;;;;;;;;;;;;;;;;;1882675;28;7324;-65
2021/11/20 04:24:43;;;;;;;;;;;;;;;;;;1883704;28;7017;-64
2021/11/20 04:25:41;;;;;;;;;;;;;;;;;;1883268;28;8119;-65
2021/11/20 04:26:38;;;;;;;;;;;;;;;;;;1883579;28;7009;-64
2021/11/20 04:27:36;;;;;;;;;;;;;;;;;;1876658;28;9920;-65
2021/11/20 04:28:34;;;;;;;;;;;;;;;;;;1879213;28;7042;-65
2021/11/20 04:29:31;;;;;;;;;;;;;;;;;;1883557;28;7050;-64
2021/11/20 04:30:29;;;;;;;;;;;;;;;;;;1882960;28;7097;-64
2021/11/20 04:31:26;;;;;;;;;;;;;;;;;;1878399;28;7506;-65
2021/11/20 04:32:24;;;;;;;;;;;;;;;;;;1875578;28;7054;-65
2021/11/20 04:33:22;;;;;;;;;;;;;;;;;;1876106;28;7097;-64
2021/11/20 04:34:19;;;;;;;;;;;;;;;;;;1875923;28;7097;-65
2021/11/20 04:35:19;;;;;;;;;;;;;;;;;;1875425;28;7014;-65
2021/11/20 04:36:16;;;;;;;;;;;;;;;;;;1876187;28;8038;-64
2021/11/20 04:37:14;;;;;;;;;;;;;;;;;;1868612;29;7093;-66
2021/11/20 04:38:11;;;;;;;;;;;;;;;;;;1875330;28;7093;-66
2021/11/20 04:39:09;;;;;;;;;;;;;;;;;;1882595;28;7010;-65
2021/11/20 04:40:07;;;;;;;;;;;;;;;;;;1883357;28;7113;-66
2021/11/20 04:41:05;;;;;;;;;;;;;;;;;;1882674;28;10549;-66
2021/11/20 04:42:03;;;;;;;;;;;;;;;;;;1876258;28;7109;-65
2021/11/20 04:43:00;;;;;;;;;;;;;;;;;;1875527;28;7088;-65
2021/11/20 04:43:58;;;;;;;;;;;;;;;;;;1875953;28;7116;-65
2021/11/20 04:44:55;;;;;;;;;;;;;;;;;;1875801;28;7046;-64
2021/11/20 04:45:53;;;;;;;;;;;;;;;;;;1875115;28;7029;-65
2021/11/20 04:46:50;;;;;;;;;;;;;;;;;;1875798;28;7117;-65
2021/11/20 04:47:48;;;;;;;;;;;;;;;;;;1876075;28;7005;-66
2021/11/20 04:48:45;;;;;;;;;;;;;;;;;;1875432;28;7137;-64
2021/11/20 04:49:43;;;;;;;;;;;;;;;;;;1874794;28;7152;-65
2021/11/20 04:50:40;;;;;;;;;;;;;;;;;;1876326;28;8047;-66
2021/11/20 04:51:38;;;;;;;;;;;;;;;;;;1879096;28;7030;-65
2021/11/20 04:52:35;;;;;;;;;;;;;;;;;;1883329;28;7009;-64
2021/11/20 04:53:34;;;;;;;;;;;;;;;;;;1882187;28;7038;-65
2021/11/20 04:54:32;;;;;;;;;;;;;;;;;;1880874;28;7037;-65
2021/11/20 04:55:42;;;;;;;;;;;;;;;;;;1876875;28;7009;-64
2021/11/20 04:56:39;;;;;;;;;;;;;;;;;;1875979;28;7114;-64
2021/11/20 04:57:37;;;;;;;;;;;;;;;;;;1875358;28;7006;-65
2021/11/20 04:58:34;;;;;;;;;;;;;;;;;;1877932;28;7124;-65
2021/11/20 04:59:32;;;;;;;;;;;;;;;;;;1876243;28;8075;-65
2021/11/20 05:00:32;;;;;;;;;;;;;;;;;;1877202;28;7109;-66
2021/11/20 05:01:30;;;;;;;;;;;;;;;;;;1879308;28;8036;-64
2021/11/20 05:02:30;;;;;;;;;;;;;;;;;;1876028;28;7192;-66
2021/11/20 05:03:29;;;;;;;;;;;;;;;;;;1877300;28;7113;-65
2021/11/20 05:04:27;;;;;;;;;;;;;;;;;;1883417;28;7010;-65
2021/11/20 05:05:25;;;;;;;;;;;;;;;;;;1883983;28;9046;-65
2021/11/20 05:06:24;;;;;;;;;;;;;;;;;;1883433;28;7325;-65
2021/11/20 05:07:21;;;;;;;;;;;;;;;;;;1883239;28;7097;-65
2021/11/20 05:08:20;;;;;;;;;;;;;;;;;;1875921;28;7010;-64
2021/11/20 05:09:18;;;;;;;;;;;;;;;;;;1876234;28;7034;-65
2021/11/20 05:10:16;;;;;;;;;;;;;;;;;;1868788;29;8119;-65
2021/11/20 05:11:14;;;;;;;;;;;;;;;;;;1868710;29;7047;-65
2021/11/20 05:12:12;;;;;;;;;;;;;;;;;;1869096;29;7010;-64
2021/11/20 05:13:10;;;;;;;;;;;;;;;;;;1876215;28;7014;-64
2021/11/20 05:14:08;;;;;;;;;;;;;;;;;;1875349;28;7097;-65
2021/11/20 05:15:07;;;;;;;;;;;;;;;;;;1882302;28;7010;-65
2021/11/20 05:16:04;;;;;;;;;;;;;;;;;;1875162;28;7320;-65
2021/11/20 05:17:02;;;;;;;;;;;;;;;;;;1876384;28;7137;-66
2021/11/20 05:18:00;;;;;;;;;;;;;;;;;;1876013;28;7014;-65
2021/11/20 05:18:57;;;;;;;;;;;;;;;;;;1876378;28;7082;-65
2021/11/20 05:19:55;;;;;;;;;;;;;;;;;;1876520;28;8035;-65
2021/11/20 05:20:54;;;;;;;;;;;;;;;;;;1876365;28;7010;-66
2021/11/20 05:21:51;;;;;;;;;;;;;;;;;;1875921;28;7308;-65
2021/11/20 05:22:49;;;;;;;;;;;;;;;;;;1876460;28;7042;-65
2021/11/20 05:23:47;;;;;;;;;;;;;;;;;;1879623;28;7323;-64
2021/11/20 05:24:44;;;;;;;;;;;;;;;;;;1883623;28;7097;-65
2021/11/20 05:25:43;;;;;;;;;;;;;;;;;;1883672;28;7042;-65
2021/11/20 05:26:41;;;;;;;;;;;;;;;;;;1884125;28;8111;-65
2021/11/20 05:27:39;;;;;;;;;;;;;;;;;;1883936;28;7312;-64
2021/11/20 05:28:36;;;;;;;;;;;;;;;;;;1883277;28;7385;-65
2021/11/20 05:30:36;;;;;;;;;;;;;;;;;;1875720;28;7118;-65
2021/11/20 05:31:35;;;;;;;;;;;;;;;;;;1874454;28;7108;-64
2021/11/20 05:32:34;;;;;;;;;;;;;;;;;;1877456;28;7121;-65
2021/11/20 05:33:41;;;;;;;;;;;;;;;;;;1883442;28;7092;-64
2021/11/20 05:34:39;;;;;;;;;;;;;;;;;;1881315;28;7299;-65
2021/11/20 05:35:37;;;;;;;;;;;;;;;;;;1876417;28;7134;-65
2021/11/20 05:36:35;;;;;;;;;;;;;;;;;;1878499;28;7006;-65
2021/11/20 05:37:33;;;;;;;;;;;;;;;;;;1882882;28;7133;-65
2021/11/20 05:38:31;;;;;;;;;;;;;;;;;;1882982;28;7022;-65
2021/11/20 05:39:28;;;;;;;;;;;;;;;;;;1882831;28;7014;-64
2021/11/20 05:40:26;;;;;;;;;;;;;;;;;;1882921;28;7010;-65
2021/11/20 05:41:24;;;;;;;;;;;;;;;;;;1882864;28;7304;-65
2021/11/20 05:42:21;;;;;;;;;;;;;;;;;;1883491;28;7349;-65
2021/11/20 05:43:20;;;;;;;;;;;;;;;;;;1883744;28;7217;-65
2021/11/20 05:44:18;;;;;;;;;;;;;;;;;;1883148;28;7043;-65
2021/11/20 05:45:19;;;;;;;;;;;;;;;;;;1883312;28;7493;-64
2021/11/20 05:46:18;;;;;;;;;;;;;;;;;;1883438;28;7153;-64
2021/11/20 05:47:17;;;;;;;;;;;;;;;;;;1878835;28;7010;-65
2021/11/20 05:48:15;;;;;;;;;;;;;;;;;;1877684;28;7134;-64
2021/11/20 05:49:12;;;;;;;;;;;;;;;;;;1875027;28;7026;-65
2021/11/20 05:50:10;;;;;;;;;;;;;;;;;;1876248;28;7006;-64
2021/11/20 05:51:08;;;;;;;;;;;;;;;;;;1876400;28;7105;-65
2021/11/20 05:52:07;;;;;;;;;;;;;;;;;;1881053;28;8033;-66
2021/11/20 05:53:10;;;;;;;;;;;;;;;;;;1882765;28;7010;-64
2021/11/20 05:54:08;;;;;;;;;;;;;;;;;;1883027;28;7063;-66
2021/11/20 05:55:08;;;;;;;;;;;;;;;;;;1883138;28;7022;-64
2021/11/20 05:56:06;;;;;;;;;;;;;;;;;;1883303;28;7105;-64
2021/11/20 05:57:03;;;;;;;;;;;;;;;;;;1883278;28;8072;-65
2021/11/20 05:58:01;;;;;;;;;;;;;;;;;;1877485;28;7109;-64
2021/11/20 05:58:58;;;;;;;;;;;;;;;;;;1876502;28;7042;-64
2021/11/20 05:59:56;;;;;;;;;;;;;;;;;;1874508;28;7026;-65
2021/11/20 06:00:55;;;;;;;;;;;;;;;;;;1880422;28;7009;-64
2021/11/20 06:01:54;;;;;;;;;;;;;;;;;;1875915;28;7043;-65
2021/11/20 06:02:54;;;;;;;;;;;;;;;;;;1876149;28;7321;-66
2021/11/20 06:03:51;;;;;;;;;;;;;;;;;;1882734;28;7186;-65
2021/11/20 06:04:49;;;;;;;;;;;;;;;;;;1882550;28;7013;-64
2021/11/20 06:05:47;;;;;;;;;;;;;;;;;;1883429;28;8036;-64
2021/11/20 06:06:44;;;;;;;;;;;;;;;;;;1883334;28;7006;-65
2021/11/20 06:07:42;;;;;;;;;;;;;;;;;;1883025;28;7105;-65
2021/11/20 06:08:39;;;;;;;;;;;;;;;;;;1883555;28;7227;-65
2021/11/20 06:09:40;;;;;;;;;;;;;;;;;;1875164;28;7017;-65
2021/11/20 06:10:39;;;;;;;;;;;;;;;;;;1878624;28;7157;-63
2021/11/20 06:11:37;;;;;;;;;;;;;;;;;;1883205;28;7029;-64
2021/11/20 06:12:35;;;;;;;;;;;;;;;;;;1879862;28;7100;-64
2021/11/20 06:13:33;;;;;;;;;;;;;;;;;;1876454;28;7026;-65
2021/11/20 06:14:30;;;;;;;;;;;;;;;;;;1875548;28;7062;-66
2021/11/20 06:15:28;;;;;;;;;;;;;;;;;;1875388;28;7158;-65
2021/11/20 06:16:26;;;;;;;;;;;;;;;;;;1875182;28;7033;-65
2021/11/20 06:17:24;;;;;;;;;;;;;;;;;;1875581;28;7006;-65
2021/11/20 06:18:22;;;;;;;;;;;;;;;;;;1875653;28;7097;-65
2021/11/20 06:19:19;;;;;;;;;;;;;;;;;;1875762;28;8063;-65
2021/11/20 06:20:18;;;;;;;;;;;;;;;;;;1876211;28;7092;-65
2021/11/20 06:21:15;;;;;;;;;;;;;;;;;;1876254;28;7030;-65
2021/11/20 06:22:13;;;;;;;;;;;;;;;;;;1875690;28;7006;-65
2021/11/20 06:23:10;;;;;;;;;;;;;;;;;;1876022;28;7009;-65
2021/11/20 06:24:08;;;;;;;;;;;;;;;;;;1882621;28;7006;-65
2021/11/20 06:25:07;;;;;;;;;;;;;;;;;;1883353;28;8055;-65
2021/11/20 06:26:05;;;;;;;;;;;;;;;;;;1883285;28;7033;-64
2021/11/20 06:27:03;;;;;;;;;;;;;;;;;;1883083;28;8083;-63
2021/11/20 06:28:00;;;;;;;;;;;;;;;;;;1883673;28;7029;-64
2021/11/20 06:28:58;;;;;;;;;;;;;;;;;;1882778;28;7093;-65
2021/11/20 06:29:55;;;;;;;;;;;;;;;;;;1874626;28;7006;-65
2021/11/20 06:30:53;;;;;;;;;;;;;;;;;;1875238;28;8056;-65
2021/11/20 06:31:51;;;;;;;;;;;;;;;;;;1875472;28;7087;-65
2021/11/20 06:32:48;;;;;;;;;;;;;;;;;;1873920;28;9382;-65
2021/11/20 06:33:46;;;;;;;;;;;;;;;;;;1875585;28;7014;-65
2021/11/20 06:34:43;;;;;;;;;;;;;;;;;;1876182;28;9053;-65
2021/11/20 06:35:41;;;;;;;;;;;;;;;;;;1875273;28;7010;-65
2021/11/20 06:36:38;;;;;;;;;;;;;;;;;;1875233;29;7006;-65
2021/11/20 06:37:37;;;;;;;;;;;;;;;;;;1875822;29;7058;-65
2021/11/20 06:38:39;;;;;;;;;;;;;;;;;;1875484;29;7043;-65
2021/11/20 06:39:38;;;;;;;;;;;;;;;;;;1876016;29;7093;-65
2021/11/20 06:40:38;;;;;;;;;;;;;;;;;;1875504;29;8041;-65
2021/11/20 06:41:35;;;;;;;;;;;;;;;;;;1875345;29;7038;-65
2021/11/20 06:42:33;;;;;;;;;;;;;;;;;;1874135;29;7006;-66
2021/11/20 06:43:31;;;;;;;;;;;;;;;;;;1875470;28;7034;-66
2021/11/20 06:44:28;;;;;;;;;;;;;;;;;;1875179;29;7009;-64
2021/11/20 06:45:28;;;;;;;;;;;;;;;;;;1875288;29;7117;-63
2021/11/20 06:46:25;;;;;;;;;;;;;;;;;;1875566;29;7049;-65
2021/11/20 06:47:23;;;;;;;;;;;;;;;;;;1875509;28;7341;-65
2021/11/20 06:48:22;;;;;;;;;;;;;;;;;;1874361;28;8052;-65
2021/11/20 06:49:20;;;;;;;;;;;;;;;;;;1873817;29;7054;-64
2021/11/20 06:50:17;;;;;;;;;;;;;;;;;;1876189;29;7042;-65
2021/11/20 06:51:18;;;;;;;;;;;;;;;;;;1868131;29;7121;-65
2021/11/20 06:52:15;;;;;;;;;;;;;;;;;;1867233;29;7026;-65
2021/11/20 06:53:15;;;;;;;;;;;;;;;;;;1868292;29;8120;-65